aviador You're here:

LFLB Decoded Metar

CHAMBERY in FRANCE
Report Time2017-09-23 21:30:00
UTC Time2017-09-23 21:47:19
Flight Rules vfr VFR
WindCalm
Visibility9999 m
Phenomena:N/A
Clouds:N/A
Expected CloudBase > 400 ft AGL from Temp-Dew spread
CeilingNone
Temp12°C (ISA -1)
Dew Point11°C (94% RH)
QNH1021 hPa
Density Alt522 ft
Elevation784 ft
Report Wrong Elevation
Raw Report
METAR LFLB 232130Z AUTO 00000KT 9999 4400 NSC 12/11 Q1021=

Extra information for LFLB:More info

Metar Taf Metar & Taf Last 4 Metars F.Rules Stats Wind Profile Meteogram Temp Stats Airport Information Weather charts Add Link Nearby VenuesMetar ALERT Operation Metar Decoded Social comments